Time;durP1;ratioP1;P1;durP2;ratioP2;P2;SDS_P1;SDS_P2;PMS_P1;PMS_P2;Temp;Humidity;BMP_temperature;BMP_pressure;BME280_temperature;BME280_humidity;BME280_pressure;Samples;Min_cycle;Max_cycle;Signal;HPM_P1;HPM_P2
2022/04/18 00:01:07;;;;;;;;;;;7.10;70.90;;;;;;5016827;28;19909;-88
2022/04/18 00:03:33;;;;;;;;;;;7.00;71.70;;;;;;5016834;28;19910;-88
2022/04/18 00:05:58;;;;;;;;;;;7.00;71.80;;;;;;5033334;28;19924;-88
2022/04/18 00:08:24;;;;;;;;;;;7.00;71.80;;;;;;5034929;28;20016;-88
2022/04/18 00:10:49;;;;;;;;;;;7.10;72.50;;;;;;5036460;28;19992;-89
2022/04/18 00:13:15;;;;;;;;;;;7.20;72.40;;;;;;5036440;28;19909;-88
2022/04/18 00:15:40;;;;;;;;;;;7.20;71.40;;;;;;5022063;28;20379;-88
2022/04/18 00:18:06;;;;;;;;;;;7.10;71.70;;;;;;5016545;28;19910;-88
2022/04/18 00:20:32;;;;;;;;;;;7.10;72.20;;;;;;5016517;28;20383;-88
2022/04/18 00:22:57;;;;;;;;;;;7.10;72.90;;;;;;5016477;28;19909;-88
2022/04/18 00:25:23;;;;;;;;;;;7.10;73.50;;;;;;5027244;28;19949;-88
2022/04/18 00:27:49;;;;;;;;;;;7.10;74.10;;;;;;5036127;28;19955;-88
2022/04/18 00:30:15;;;;;;;;;;;7.00;73.80;;;;;;5036061;28;19913;-88
2022/04/18 00:32:40;;;;;;;;;;;6.90;74.40;;;;;;5035960;28;19916;-88
2022/04/18 00:35:06;;;;;;;;;;;6.90;76.20;;;;;;5035286;28;19913;-88
2022/04/18 00:37:32;;;;;;;;;;;7.00;76.00;;;;;;5036018;28;19909;-88
2022/04/18 00:39:57;;;;;;;;;;;7.00;75.70;;;;;;5035920;28;19909;-88
2022/04/18 00:42:23;;;;;;;;;;;6.90;75.50;;;;;;5035916;28;19916;-88
2022/04/18 00:44:48;;;;;;;;;;;6.90;75.60;;;;;;5029510;28;19925;-88
2022/04/18 00:47:14;;;;;;;;;;;6.90;75.90;;;;;;5016303;28;19910;-88
2022/04/18 00:49:40;;;;;;;;;;;6.90;76.10;;;;;;5015941;28;19921;-88
2022/04/18 00:52:05;;;;;;;;;;;6.80;77.30;;;;;;5015957;28;20004;-88
2022/04/18 00:54:32;;;;;;;;;;;6.80;78.20;;;;;;5018289;28;20371;-88
2022/04/18 00:56:57;;;;;;;;;;;6.70;78.60;;;;;;5035592;28;19971;-88
2022/04/18 00:59:23;;;;;;;;;;;6.60;79.00;;;;;;5035599;28;19909;-88
2022/04/18 01:01:49;;;;;;;;;;;6.50;79.40;;;;;;5035539;28;20146;-88
2022/04/18 01:04:14;;;;;;;;;;;6.50;79.30;;;;;;5034331;28;19916;-88
2022/04/18 01:06:40;;;;;;;;;;;6.50;79.50;;;;;;5015666;28;19914;-88
2022/04/18 01:09:06;;;;;;;;;;;6.50;79.90;;;;;;5015289;28;20012;-88
2022/04/18 01:11:32;;;;;;;;;;;6.40;80.00;;;;;;5014293;28;19910;-88
2022/04/18 01:14:00;;;;;;;;;;;6.40;80.00;;;;;;5015494;28;19916;-88
2022/04/18 01:16:25;;;;;;;;;;;6.40;79.60;;;;;;5033762;28;19913;-88
2022/04/18 01:18:51;;;;;;;;;;;6.40;79.40;;;;;;5035228;28;19917;-88
2022/04/18 01:21:19;;;;;;;;;;;6.40;79.30;;;;;;5035428;28;19909;-88
2022/04/18 01:23:44;;;;;;;;;;;6.30;79.00;;;;;;5035098;28;19948;-88
2022/04/18 01:29:03;;;;;;;;;;;6.40;77.90;;;;;;5015417;28;19971;-89
2022/04/18 01:31:30;;;;;;;;;;;6.40;77.30;;;;;;5015100;28;19916;-88
2022/04/18 01:33:56;;;;;;;;;;;6.50;77.70;;;;;;5013816;28;20279;-88
2022/04/18 01:36:22;;;;;;;;;;;6.50;77.30;;;;;;5032448;28;19917;-89
2022/04/18 01:38:48;;;;;;;;;;;6.40;76.70;;;;;;5034815;28;20456;-88
2022/04/18 01:41:14;;;;;;;;;;;6.50;76.10;;;;;;5034766;28;20006;-88
2022/04/18 01:43:39;;;;;;;;;;;6.40;75.30;;;;;;5033025;28;19970;-88
2022/04/18 01:46:05;;;;;;;;;;;6.40;75.20;;;;;;5034678;28;19999;-88
2022/04/18 01:48:31;;;;;;;;;;;6.40;75.40;;;;;;5034498;28;20383;-88
2022/04/18 01:50:56;;;;;;;;;;;6.40;76.00;;;;;;5035183;28;19916;-89
2022/04/18 01:53:22;;;;;;;;;;;6.40;76.40;;;;;;5030828;28;19960;-88
2022/04/18 01:55:48;;;;;;;;;;;6.40;76.50;;;;;;5014728;28;20414;-88
2022/04/18 01:58:14;;;;;;;;;;;6.40;76.60;;;;;;5014648;28;19945;-88
2022/04/18 02:00:39;;;;;;;;;;;6.30;76.20;;;;;;5014640;28;19913;-88
2022/04/18 02:03:05;;;;;;;;;;;6.30;76.40;;;;;;5015223;28;19910;-88
2022/04/18 02:05:31;;;;;;;;;;;6.20;76.50;;;;;;5034581;28;19913;-88
2022/04/18 02:07:56;;;;;;;;;;;6.20;76.70;;;;;;5033990;28;19921;-88
2022/04/18 02:10:22;;;;;;;;;;;6.10;76.80;;;;;;5034081;28;20371;-88
2022/04/18 02:12:47;;;;;;;;;;;6.10;77.30;;;;;;5034175;28;19913;-88
2022/04/18 02:15:15;;;;;;;;;;;6.00;77.60;;;;;;5015741;28;19910;-88
2022/04/18 02:17:40;;;;;;;;;;;5.90;78.20;;;;;;5014358;28;19917;-88
2022/04/18 02:20:06;;;;;;;;;;;5.90;78.10;;;;;;5014347;28;20383;-88
2022/04/18 02:22:33;;;;;;;;;;;5.90;77.90;;;;;;5014292;28;19910;-88
2022/04/18 02:24:59;;;;;;;;;;;5.90;78.10;;;;;;5030014;28;19954;-88
2022/04/18 02:27:24;;;;;;;;;;;5.80;78.50;;;;;;5033970;28;20003;-88
2022/04/18 02:29:50;;;;;;;;;;;5.80;78.50;;;;;;5033772;28;19913;-88
2022/04/18 02:35:00;;;;;;;;;;;5.60;78.60;;;;;;5014082;28;19924;-89
2022/04/18 02:37:25;;;;;;;;;;;5.50;78.50;;;;;;5014032;28;19910;-88
2022/04/18 02:39:54;;;;;;;;;;;5.50;78.80;;;;;;5013949;28;19945;-88
2022/04/18 02:42:19;;;;;;;;;;;5.40;78.90;;;;;;5014142;28;20398;-88
2022/04/18 02:44:49;;;;;;;;;;;5.40;79.20;;;;;;5014118;28;19909;-88
2022/04/18 02:47:14;;;;;;;;;;;5.40;79.90;;;;;;5013824;28;19909;-88
2022/04/18 02:49:40;;;;;;;;;;;5.40;79.30;;;;;;5013719;28;20285;-88
2022/04/18 02:52:06;;;;;;;;;;;5.40;78.60;;;;;;5019186;28;20360;-88
2022/04/18 02:54:31;;;;;;;;;;;5.40;78.70;;;;;;5033408;28;20404;-89
2022/04/18 02:56:57;;;;;;;;;;;5.40;79.20;;;;;;5033485;28;20340;-88
2022/04/18 02:59:22;;;;;;;;;;;5.40;79.10;;;;;;5033428;28;20383;-89
2022/04/18 03:01:48;;;;;;;;;;;5.30;78.10;;;;;;5030165;28;20423;-88
2022/04/18 03:04:13;;;;;;;;;;;5.30;77.60;;;;;;5021304;28;20322;-88
2022/04/18 03:06:39;;;;;;;;;;;5.30;76.80;;;;;;5033335;28;20375;-88
2022/04/18 03:09:04;;;;;;;;;;;5.30;76.30;;;;;;5033006;28;19924;-88
2022/04/18 03:11:30;;;;;;;;;;;5.20;76.10;;;;;;5032806;28;19909;-88
2022/04/18 03:13:55;;;;;;;;;;;5.30;75.90;;;;;;5013476;28;19916;-88
2022/04/18 03:16:21;;;;;;;;;;;5.30;75.70;;;;;;5013073;28;19910;-88
2022/04/18 03:18:47;;;;;;;;;;;5.50;75.70;;;;;;5013446;28;19910;-88
2022/04/18 03:21:13;;;;;;;;;;;5.60;75.80;;;;;;5013384;28;19944;-88
2022/04/18 03:23:39;;;;;;;;;;;5.80;75.40;;;;;;5013288;28;19914;-88
2022/04/18 03:26:06;;;;;;;;;;;5.90;74.00;;;;;;5013611;28;19921;-88
2022/04/18 03:28:32;;;;;;;;;;;5.90;74.20;;;;;;5013295;28;19933;-88
2022/04/18 03:30:58;;;;;;;;;;;6.00;73.30;;;;;;5013276;28;19916;-88
2022/04/18 03:33:23;;;;;;;;;;;6.10;73.00;;;;;;5028234;28;19913;-89
2022/04/18 03:41:17;;;;;;;;;;;6.10;73.30;;;;;;5033238;28;19916;-88
2022/04/18 03:43:42;;;;;;;;;;;6.00;73.10;;;;;;5015104;28;20272;-88
2022/04/18 03:46:08;;;;;;;;;;;5.80;73.20;;;;;;5013169;28;20008;-88
2022/04/18 03:48:34;;;;;;;;;;;5.70;73.40;;;;;;5013075;28;19917;-88
2022/04/18 03:50:59;;;;;;;;;;;5.60;73.90;;;;;;5013370;28;19921;-88
2022/04/18 03:53:25;;;;;;;;;;;5.60;73.60;;;;;;5027886;28;20451;-88
2022/04/18 03:55:50;;;;;;;;;;;5.60;73.80;;;;;;5032798;28;19909;-88
2022/04/18 03:58:16;;;;;;;;;;;5.80;74.40;;;;;;5032821;28;19909;-88
2022/04/18 04:00:45;;;;;;;;;;;5.90;74.40;;;;;;5032767;28;20003;-88
2022/04/18 04:03:11;;;;;;;;;;;5.80;74.00;;;;;;5019494;28;19914;-88
2022/04/18 04:05:37;;;;;;;;;;;5.60;73.70;;;;;;5011711;28;19917;-88
2022/04/18 04:08:02;;;;;;;;;;;5.40;73.80;;;;;;5012832;28;19926;-89
2022/04/18 04:10:28;;;;;;;;;;;5.40;74.10;;;;;;5011863;28;19964;-88
2022/04/18 04:12:53;;;;;;;;;;;5.30;73.70;;;;;;5012946;28;19910;-89
2022/04/18 04:15:19;;;;;;;;;;;5.30;73.90;;;;;;5012915;28;19913;-89
2022/04/18 04:17:44;;;;;;;;;;;5.20;73.60;;;;;;5013010;28;20137;-88
2022/04/18 04:20:10;;;;;;;;;;;5.10;73.70;;;;;;5012916;28;19909;-88
2022/04/18 04:22:36;;;;;;;;;;;5.00;73.80;;;;;;5012858;28;19992;-89
2022/04/18 04:25:02;;;;;;;;;;;5.00;73.70;;;;;;5013037;28;19955;-89
2022/04/18 04:27:30;;;;;;;;;;;5.10;74.10;;;;;;5012892;28;19979;-88
2022/04/18 04:29:56;;;;;;;;;;;5.10;74.20;;;;;;5016233;28;19920;-89
2022/04/18 04:32:23;;;;;;;;;;;5.30;74.10;;;;;;5016228;28;19909;-89
2022/04/18 04:34:50;;;;;;;;;;;5.40;73.80;;;;;;5016368;28;19909;-89
2022/04/18 04:37:16;;;;;;;;;;;5.40;74.30;;;;;;5014936;28;19963;-89
2022/04/18 04:39:41;;;;;;;;;;;5.40;74.10;;;;;;5016210;28;20004;-88
2022/04/18 04:42:07;;;;;;;;;;;5.30;73.60;;;;;;5016141;28;19910;-88
2022/04/18 04:44:33;;;;;;;;;;;5.20;73.80;;;;;;5016095;28;20008;-89
2022/04/18 04:46:59;;;;;;;;;;;5.20;74.00;;;;;;5016085;28;19949;-88
2022/04/18 04:49:24;;;;;;;;;;;5.20;73.90;;;;;;5014672;28;19913;-88
2022/04/18 04:51:50;;;;;;;;;;;5.30;73.70;;;;;;5015974;28;19968;-88
2022/04/18 04:54:15;;;;;;;;;;;5.30;74.30;;;;;;5015782;28;19909;-88
2022/04/18 04:56:41;;;;;;;;;;;5.30;74.40;;;;;;5015862;28;19916;-88
2022/04/18 04:59:07;;;;;;;;;;;5.30;74.50;;;;;;5015827;28;19910;-88
2022/04/18 05:01:33;;;;;;;;;;;5.40;74.70;;;;;;5015764;28;20004;-89
2022/04/18 05:03:58;;;;;;;;;;;5.40;74.60;;;;;;5015734;28;19914;-89
2022/04/18 05:06:24;;;;;;;;;;;5.50;74.20;;;;;;5015682;28;20330;-88
2022/04/18 05:08:50;;;;;;;;;;;5.50;74.60;;;;;;5015307;28;19992;-89
2022/04/18 05:11:15;;;;;;;;;;;5.60;75.60;;;;;;5015608;28;20429;-89
2022/04/18 05:13:41;;;;;;;;;;;5.60;75.90;;;;;;5015824;28;19910;-88
2022/04/18 05:16:06;;;;;;;;;;;5.60;74.50;;;;;;5015553;28;20352;-88
2022/04/18 05:18:32;;;;;;;;;;;5.60;76.00;;;;;;5015452;28;19915;-88
2022/04/18 05:20:58;;;;;;;;;;;5.80;76.10;;;;;;5015421;28;19910;-88
2022/04/18 05:23:23;;;;;;;;;;;5.90;76.00;;;;;;5015652;28;19933;-88
2022/04/18 05:25:49;;;;;;;;;;;6.00;76.10;;;;;;5015403;28;19945;-88
2022/04/18 05:28:14;;;;;;;;;;;6.00;75.70;;;;;;5015269;28;19910;-88
2022/04/18 05:30:40;;;;;;;;;;;6.10;74.90;;;;;;5015149;28;19921;-88
2022/04/18 05:33:06;;;;;;;;;;;6.20;74.30;;;;;;5015125;28;19914;-89
2022/04/18 05:35:32;;;;;;;;;;;6.10;74.70;;;;;;5015375;28;19910;-88
2022/04/18 05:37:57;;;;;;;;;;;6.00;75.90;;;;;;5015169;28;19913;-89
2022/04/18 05:40:23;;;;;;;;;;;5.90;75.10;;;;;;5014698;28;20364;-88
2022/04/18 05:42:48;;;;;;;;;;;5.90;75.10;;;;;;5014994;28;19910;-89
2022/04/18 05:45:14;;;;;;;;;;;6.10;74.70;;;;;;5014926;28;19910;-88
2022/04/18 05:47:39;;;;;;;;;;;6.20;74.30;;;;;;5014943;28;19959;-88
2022/04/18 05:50:05;;;;;;;;;;;6.30;74.40;;;;;;5014805;28;20047;-88
2022/04/18 05:52:31;;;;;;;;;;;6.30;75.40;;;;;;5014835;28;19960;-88
2022/04/18 05:54:56;;;;;;;;;;;6.40;76.30;;;;;;5015004;28;19909;-88
2022/04/18 05:57:22;;;;;;;;;;;6.40;75.40;;;;;;5014380;28;19949;-88
2022/04/18 05:59:48;;;;;;;;;;;6.40;74.80;;;;;;5014744;28;19975;-88
2022/04/18 06:02:14;;;;;;;;;;;6.50;75.00;;;;;;5014651;28;20040;-88
2022/04/18 06:04:39;;;;;;;;;;;6.50;74.90;;;;;;5014635;28;19913;-88
2022/04/18 06:07:05;;;;;;;;;;;6.60;74.90;;;;;;5014581;28;19920;-88
2022/04/18 06:09:31;;;;;;;;;;;6.70;74.90;;;;;;5014187;28;20371;-88
2022/04/18 06:11:57;;;;;;;;;;;6.80;74.30;;;;;;5014438;28;19910;-88
2022/04/18 06:14:22;;;;;;;;;;;6.90;74.40;;;;;;5014370;28;19956;-88
2022/04/18 06:16:48;;;;;;;;;;;6.90;73.30;;;;;;5014175;28;20335;-88
2022/04/18 06:19:13;;;;;;;;;;;7.10;73.60;;;;;;5014385;28;19960;-89
2022/04/18 06:21:39;;;;;;;;;;;7.10;72.90;;;;;;5014227;28;19920;-88
2022/04/18 06:24:05;;;;;;;;;;;7.20;72.60;;;;;;5014793;28;19975;-89
2022/04/18 06:26:30;;;;;;;;;;;7.40;73.00;;;;;;5031563;28;20360;-89
2022/04/18 06:28:57;;;;;;;;;;;7.40;73.40;;;;;;5034079;28;19932;-88
2022/04/18 06:31:24;;;;;;;;;;;7.50;72.90;;;;;;5033778;28;20337;-88
2022/04/18 06:33:49;;;;;;;;;;;7.60;71.90;;;;;;5033841;28;19945;-88
2022/04/18 06:36:15;;;;;;;;;;;7.70;72.20;;;;;;5034142;28;19909;-88
2022/04/18 06:38:40;;;;;;;;;;;7.80;71.80;;;;;;5033732;28;19909;-88
2022/04/18 06:41:08;;;;;;;;;;;7.90;70.60;;;;;;5033768;28;19943;-88
2022/04/18 06:43:34;;;;;;;;;;;8.00;69.90;;;;;;5033671;28;19948;-88
2022/04/18 06:45:59;;;;;;;;;;;8.10;69.60;;;;;;5033601;28;20097;-88
2022/04/18 06:48:25;;;;;;;;;;;8.20;69.40;;;;;;5033600;28;20044;-88
2022/04/18 06:50:50;;;;;;;;;;;8.30;69.70;;;;;;5032839;28;19920;-88
2022/04/18 06:53:16;;;;;;;;;;;8.40;68.50;;;;;;5033472;28;19916;-88
2022/04/18 06:58:26;;;;;;;;;;;8.70;66.60;;;;;;5033770;28;19955;-89
2022/04/18 07:00:52;;;;;;;;;;;8.80;67.10;;;;;;5033352;28;20374;-89
2022/04/18 07:03:17;;;;;;;;;;;8.90;66.20;;;;;;5033395;28;19909;-88
2022/04/18 07:05:43;;;;;;;;;;;9.10;66.20;;;;;;5033615;28;20035;-88
2022/04/18 07:08:09;;;;;;;;;;;9.20;66.80;;;;;;5061769;23;19928;-89
2022/04/18 07:10:35;;;;;;;;;;;9.40;66.30;;;;;;5104838;28;20712;-88
2022/04/18 07:13:01;;;;;;;;;;;9.50;66.00;;;;;;5073176;28;19919;-88
2022/04/18 07:15:26;;;;;;;;;;;9.70;65.20;;;;;;5073114;28;19915;-89
2022/04/18 07:17:52;;;;;;;;;;;9.80;62.60;;;;;;5073163;28;19908;-89
2022/04/18 07:20:17;;;;;;;;;;;9.90;64.20;;;;;;5073087;28;19958;-89
2022/04/18 07:22:43;;;;;;;;;;;10.00;63.00;;;;;;5073047;28;19915;-88
2022/04/18 07:25:09;;;;;;;;;;;10.10;60.70;;;;;;5073032;28;20370;-88
2022/04/18 07:27:35;;;;;;;;;;;10.30;60.90;;;;;;5073058;28;19912;-89
2022/04/18 07:30:00;;;;;;;;;;;10.30;58.60;;;;;;5072907;28;19920;-89
2022/04/18 07:32:26;;;;;;;;;;;10.40;56.00;;;;;;5072896;28;19908;-88
2022/04/18 07:34:53;;;;;;;;;;;10.60;54.60;;;;;;5073261;28;19909;-89
2022/04/18 07:37:19;;;;;;;;;;;10.70;55.50;;;;;;5072957;28;19908;-89
2022/04/18 07:39:44;;;;;;;;;;;10.80;55.90;;;;;;5072856;28;19958;-89
2022/04/18 07:42:10;;;;;;;;;;;10.80;55.30;;;;;;5072926;28;20504;-89
2022/04/18 07:44:35;;;;;;;;;;;10.90;55.20;;;;;;5072869;28;19908;-89
2022/04/18 07:47:01;;;;;;;;;;;11.10;53.20;;;;;;5072858;28;19952;-88
2022/04/18 07:49:26;;;;;;;;;;;11.20;53.60;;;;;;5072793;28;19913;-88
2022/04/18 07:51:52;;;;;;;;;;;11.30;55.10;;;;;;5072855;28;19995;-89
2022/04/18 07:54:20;;;;;;;;;;;11.40;52.50;;;;;;5073064;28;19909;-89
2022/04/18 07:56:46;;;;;;;;;;;11.60;54.00;;;;;;5072707;28;19916;-89
2022/04/18 07:59:12;;;;;;;;;;;11.60;53.30;;;;;;5072762;28;19909;-89
2022/04/18 08:01:38;;;;;;;;;;;11.70;52.30;;;;;;5072740;28;19915;-89
2022/04/18 08:04:04;;;;;;;;;;;11.80;51.70;;;;;;5076442;28;19908;-89
2022/04/18 08:06:30;;;;;;;;;;;11.80;51.20;;;;;;5076577;28;19962;-89
2022/04/18 08:08:56;;;;;;;;;;;11.90;52.70;;;;;;5076224;28;19951;-88
2022/04/18 08:11:22;;;;;;;;;;;12.00;53.00;;;;;;5076124;28;19944;-89
2022/04/18 08:13:48;;;;;;;;;;;12.20;50.20;;;;;;5076404;28;20398;-89
2022/04/18 08:16:13;;;;;;;;;;;12.30;51.10;;;;;;5076322;28;19909;-88
2022/04/18 08:18:42;;;;;;;;;;;12.40;49.20;;;;;;5076300;28;19947;-89
2022/04/18 08:21:08;;;;;;;;;;;12.50;46.60;;;;;;5076289;28;19962;-88
2022/04/18 08:23:34;;;;;;;;;;;12.50;47.60;;;;;;5076469;28;19912;-89
2022/04/18 08:25:59;;;;;;;;;;;12.40;45.60;;;;;;5076180;28;19909;-88
2022/04/18 08:28:26;;;;;;;;;;;12.40;48.30;;;;;;5076152;28;19909;-88
2022/04/18 08:30:51;;;;;;;;;;;12.50;49.90;;;;;;5075887;28;19913;-89
2022/04/18 08:33:17;;;;;;;;;;;12.60;47.50;;;;;;5075948;28;20289;-89
2022/04/18 08:35:43;;;;;;;;;;;12.60;46.50;;;;;;5076013;28;19954;-89
2022/04/18 08:38:08;;;;;;;;;;;12.60;49.20;;;;;;5076005;28;20166;-89
2022/04/18 08:40:34;;;;;;;;;;;12.70;48.20;;;;;;5076213;28;20324;-89
2022/04/18 08:43:00;;;;;;;;;;;12.80;48.20;;;;;;5075851;28;19909;-89
2022/04/18 08:45:26;;;;;;;;;;;12.90;48.00;;;;;;5075814;28;20337;-89
2022/04/18 08:53:24;;;;;;;;;;;13.20;49.30;;;;;;5075967;28;19993;-89
2022/04/18 08:55:50;;;;;;;;;;;13.30;44.80;;;;;;5075929;28;19912;-88
2022/04/18 08:58:15;;;;;;;;;;;13.20;45.30;;;;;;5075854;28;20389;-89
2022/04/18 09:00:41;;;;;;;;;;;13.30;45.30;;;;;;5075540;28;20255;-89
2022/04/18 09:03:07;;;;;;;;;;;13.20;45.00;;;;;;5075522;28;19999;-88
2022/04/18 09:05:36;;;;;;;;;;;13.20;43.60;;;;;;5075489;28;19912;-89
2022/04/18 09:08:03;;;;;;;;;;;13.30;42.90;;;;;;5075266;28;20305;-89
2022/04/18 09:10:29;;;;;;;;;;;13.30;42.50;;;;;;5075204;28;20368;-89
2022/04/18 09:13:15;;;;;;;;;;;13.30;46.50;;;;;;5075383;28;19990;-88
2022/04/18 09:15:42;;;;;;;;;;;13.30;44.50;;;;;;5074407;28;20381;-88
2022/04/18 09:18:17;;;;;;;;;;;13.50;44.20;;;;;;5075204;28;19909;-88
2022/04/18 09:20:54;;;;;;;;;;;13.50;43.90;;;;;;5075180;28;20000;-88
2022/04/18 09:23:30;;;;;;;;;;;13.60;43.50;;;;;;5075159;28;20006;-89
2022/04/18 09:25:58;;;;;;;;;;;13.70;45.20;;;;;;5075145;28;20011;-88
2022/04/18 09:28:31;;;;;;;;;;;13.80;43.80;;;;;;5075051;28;19909;-88
2022/04/18 09:31:17;;;;;;;;;;;13.80;43.60;;;;;;5074878;28;19934;-88
2022/04/18 09:33:44;;;;;;;;;;;13.70;45.10;;;;;;5074890;28;20008;-88
2022/04/18 09:36:11;;;;;;;;;;;13.70;43.60;;;;;;5074896;28;19962;-89
2022/04/18 09:38:42;;;;;;;;;;;13.80;44.60;;;;;;5074835;28;19908;-88
2022/04/18 09:41:11;;;;;;;;;;;13.80;42.60;;;;;;5074793;28;19912;-89
2022/04/18 09:43:41;;;;;;;;;;;13.80;44.80;;;;;;5074765;28;19909;-88
2022/04/18 09:46:07;;;;;;;;;;;13.90;43.90;;;;;;5074953;28;19908;-88
2022/04/18 09:48:36;;;;;;;;;;;13.90;43.60;;;;;;5074628;28;20390;-89
2022/04/18 09:51:05;;;;;;;;;;;14.00;43.70;;;;;;5074495;28;19912;-89
2022/04/18 09:53:31;;;;;;;;;;;14.10;44.80;;;;;;5074550;28;19913;-88
2022/04/18 09:55:57;;;;;;;;;;;14.10;42.40;;;;;;5074466;28;19932;-89
2022/04/18 09:58:23;;;;;;;;;;;14.20;44.10;;;;;;5074496;28;19916;-89
2022/04/18 10:00:49;;;;;;;;;;;14.30;44.70;;;;;;5074299;28;19955;-88
2022/04/18 10:03:14;;;;;;;;;;;14.40;43.50;;;;;;5074372;28;19916;-89
2022/04/18 10:05:40;;;;;;;;;;;14.40;42.60;;;;;;5074301;28;19912;-89
2022/04/18 10:08:06;;;;;;;;;;;14.40;41.70;;;;;;5074275;28;19920;-89
2022/04/18 10:10:36;;;;;;;;;;;14.50;42.80;;;;;;5074057;28;20384;-89
2022/04/18 10:13:05;;;;;;;;;;;14.70;45.90;;;;;;5074123;28;19908;-89
2022/04/18 10:15:30;;;;;;;;;;;14.80;43.10;;;;;;5074084;28;19927;-88
2022/04/18 10:17:56;;;;;;;;;;;14.80;43.00;;;;;;5074023;28;19932;-89
2022/04/18 10:20:40;;;;;;;;;;;14.90;42.50;;;;;;5073952;28;19909;-89
2022/04/18 10:23:30;;;;;;;;;;;14.80;41.20;;;;;;5073909;28;20361;-89
2022/04/18 10:25:59;;;;;;;;;;;14.90;42.40;;;;;;5072937;28;20375;-89
2022/04/18 10:28:45;;;;;;;;;;;14.90;42.20;;;;;;5073820;28;19908;-89
2022/04/18 10:31:17;;;;;;;;;;;15.10;43.30;;;;;;5073304;28;19920;-89
2022/04/18 10:33:43;;;;;;;;;;;15.30;41.40;;;;;;5073752;28;19970;-89
2022/04/18 10:36:09;;;;;;;;;;;15.40;41.60;;;;;;5073729;28;19916;-88
2022/04/18 10:38:41;;;;;;;;;;;15.30;43.10;;;;;;5073917;28;19908;-89
2022/04/18 10:41:25;;;;;;;;;;;15.40;43.50;;;;;;5073646;28;19915;-89
2022/04/18 10:43:54;;;;;;;;;;;15.40;40.70;;;;;;5073568;28;19912;-88
2022/04/18 10:46:20;;;;;;;;;;;15.40;39.80;;;;;;5073593;28;19948;-89
2022/04/18 10:48:53;;;;;;;;;;;15.70;40.90;;;;;;5073498;28;19908;-89
2022/04/18 10:51:38;;;;;;;;;;;15.90;41.00;;;;;;5073456;28;19919;-88
2022/04/18 10:54:09;;;;;;;;;;;15.90;41.40;;;;;;5073711;28;19973;-89
2022/04/18 10:57:11;;;;;;;;;;;15.80;38.60;;;;;;5073337;28;19908;-89
2022/04/18 10:59:37;;;;;;;;;;;15.80;39.20;;;;;;5072054;28;19936;-89
2022/04/18 11:02:06;;;;;;;;;;;15.90;38.10;;;;;;5073360;28;19957;-89
2022/04/18 11:04:40;;;;;;;;;;;16.00;38.10;;;;;;5073291;28;20009;-89
2022/04/18 11:07:07;;;;;;;;;;;15.90;40.40;;;;;;5072831;28;19920;-89
2022/04/18 11:09:36;;;;;;;;;;;16.10;38.60;;;;;;5073057;28;19919;-88
2022/04/18 11:12:31;;;;;;;;;;;16.20;37.70;;;;;;5073186;28;19908;-89
2022/04/18 11:15:03;;;;;;;;;;;16.30;37.00;;;;;;5072843;28;19916;-89
2022/04/18 11:17:32;;;;;;;;;;;16.40;40.40;;;;;;5073040;28;19915;-89
2022/04/18 11:20:17;;;;;;;;;;;16.40;37.50;;;;;;5072965;28;19908;-89
2022/04/18 11:22:42;;;;;;;;;;;16.40;36.40;;;;;;5073179;28;19909;-89
2022/04/18 11:25:09;;;;;;;;;;;16.70;37.90;;;;;;5073098;28;19909;-89
2022/04/18 11:27:36;;;;;;;;;;;17.00;37.30;;;;;;5073054;28;19909;-89
2022/04/18 11:30:04;;;;;;;;;;;17.30;37.40;;;;;;5072944;28;19912;-89
2022/04/18 11:32:31;;;;;;;;;;;17.40;40.20;;;;;;5073186;28;19912;-89
2022/04/18 11:34:58;;;;;;;;;;;17.50;37.00;;;;;;5073040;28;19987;-89
2022/04/18 11:37:24;;;;;;;;;;;17.20;36.00;;;;;;5074056;28;19909;-89
2022/04/18 11:39:53;;;;;;;;;;;17.10;37.90;;;;;;5077339;28;20019;-89
2022/04/18 11:42:22;;;;;;;;;;;17.20;35.40;;;;;;5075838;28;19955;-89
2022/04/18 11:44:49;;;;;;;;;;;17.20;34.90;;;;;;5077282;28;19931;-88
2022/04/18 11:47:16;;;;;;;;;;;16.90;36.10;;;;;;5077301;28;19909;-89
2022/04/18 11:49:44;;;;;;;;;;;17.00;33.80;;;;;;5076852;28;19995;-89
2022/04/18 11:52:17;;;;;;;;;;;16.90;34.50;;;;;;5076881;28;19909;-89
2022/04/18 11:55:15;;;;;;;;;;;17.20;34.50;;;;;;5076815;28;19908;-89
2022/04/18 11:57:45;;;;;;;;;;;17.30;35.20;;;;;;5075382;28;19912;-89
2022/04/18 12:00:12;;;;;;;;;;;17.30;33.50;;;;;;5076745;28;19914;-89
2022/04/18 12:08:10;;;;;;;;;;;17.80;33.10;;;;;;5076597;28;20439;-89
2022/04/18 12:10:37;;;;;;;;;;;17.90;33.60;;;;;;5076359;28;19912;-89
2022/04/18 12:13:07;;;;;;;;;;;18.10;33.30;;;;;;5076415;28;19908;-89
2022/04/18 12:15:33;;;;;;;;;;;18.80;32.10;;;;;;5076369;28;19909;-89
2022/04/18 12:18:06;;;;;;;;;;;19.60;33.70;;;;;;5076350;28;19909;-89
2022/04/18 12:20:31;;;;;;;;;;;19.40;31.00;;;;;;5076282;28;20011;-89
2022/04/18 12:22:59;;;;;;;;;;;19.00;32.50;;;;;;5076848;28;19948;-89
2022/04/18 12:25:26;;;;;;;;;;;19.30;30.80;;;;;;5076205;28;19908;-89
2022/04/18 12:27:52;;;;;;;;;;;19.70;31.70;;;;;;5076149;28;19908;-89
2022/04/18 12:30:18;;;;;;;;;;;19.30;32.30;;;;;;5076045;28;19939;-89
2022/04/18 12:32:47;;;;;;;;;;;19.80;31.80;;;;;;5075959;28;19909;-89
2022/04/18 12:35:36;;;;;;;;;;;19.90;30.70;;;;;;5076034;28;19995;-89
2022/04/18 12:38:03;;;;;;;;;;;19.20;30.30;;;;;;5075380;28;19915;-89
2022/04/18 12:40:35;;;;;;;;;;;19.40;32.60;;;;;;5075947;28;20362;-89
2022/04/18 12:43:05;;;;;;;;;;;19.40;31.90;;;;;;5076168;28;19912;-89
2022/04/18 12:45:40;;;;;;;;;;;20.50;30.20;;;;;;5075872;28;19913;-89
2022/04/18 12:48:06;;;;;;;;;;;20.60;28.80;;;;;;5075888;28;19912;-89
2022/04/18 12:50:33;;;;;;;;;;;21.40;27.80;;;;;;5074761;28;20270;-89
2022/04/18 12:52:59;;;;;;;;;;;21.80;27.10;;;;;;5075728;28;19912;-89
2022/04/18 12:55:31;;;;;;;;;;;22.50;28.00;;;;;;5075485;28;19908;-89
2022/04/18 12:57:57;;;;;;;;;;;23.30;29.00;;;;;;5075597;28;19909;-89
2022/04/18 13:00:23;;;;;;;;;;;22.80;27.50;;;;;;5075559;28;19908;-89
2022/04/18 13:02:59;;;;;;;;;;;22.30;27.90;;;;;;5075568;28;19909;-89
2022/04/18 13:05:26;;;;;;;;;;;22.80;26.90;;;;;;5075506;28;19936;-89
2022/04/18 13:07:51;;;;;;;;;;;22.30;27.70;;;;;;5075236;28;19928;-89
2022/04/18 13:10:25;;;;;;;;;;;22.00;28.20;;;;;;5075200;28;19912;-89
2022/04/18 13:12:58;;;;;;;;;;;21.50;26.50;;;;;;5075355;28;19913;-89
2022/04/18 13:15:26;;;;;;;;;;;21.80;27.00;;;;;;5075283;28;19913;-89
2022/04/18 13:17:56;;;;;;;;;;;22.00;27.20;;;;;;5075254;28;20007;-89
2022/04/18 13:20:21;;;;;;;;;;;21.10;27.40;;;;;;5073926;28;20385;-89
2022/04/18 13:22:47;;;;;;;;;;;21.60;27.30;;;;;;5075478;28;19908;-89
2022/04/18 13:25:12;;;;;;;;;;;22.90;26.70;;;;;;5075064;28;19914;-90
2022/04/18 13:27:38;;;;;;;;;;;23.70;25.70;;;;;;5075089;28;19944;-89
2022/04/18 13:30:04;;;;;;;;;;;23.20;28.50;;;;;;5074972;28;19955;-89
2022/04/18 13:32:31;;;;;;;;;;;22.70;27.50;;;;;;5074897;28;19955;-89
2022/04/18 13:34:56;;;;;;;;;;;21.90;27.00;;;;;;5074919;28;19915;-89
2022/04/18 13:37:22;;;;;;;;;;;22.80;29.30;;;;;;5074985;28;20178;-90
2022/04/18 13:39:47;;;;;;;;;;;24.30;26.70;;;;;;5074840;28;19908;-90
2022/04/18 13:42:16;;;;;;;;;;;24.90;23.80;;;;;;5074845;28;19919;-89
2022/04/18 13:44:42;;;;;;;;;;;24.50;24.00;;;;;;5074718;28;19919;-89
2022/04/18 13:47:08;;;;;;;;;;;23.90;23.50;;;;;;5074725;28;19909;-89
2022/04/18 13:49:33;;;;;;;;;;;23.80;25.60;;;;;;5074820;28;19912;-90
2022/04/18 13:51:59;;;;;;;;;;;24.80;24.20;;;;;;5074898;28;19909;-89
2022/04/18 13:54:25;;;;;;;;;;;24.80;24.70;;;;;;5074571;28;19909;-89
2022/04/18 13:56:50;;;;;;;;;;;24.40;23.50;;;;;;5074508;28;19912;-90
2022/04/18 13:59:16;;;;;;;;;;;24.50;23.20;;;;;;5074451;28;19909;-90
2022/04/18 14:01:43;;;;;;;;;;;24.50;23.70;;;;;;5074159;28;19909;-90
2022/04/18 14:04:08;;;;;;;;;;;24.30;24.80;;;;;;5074386;28;19915;-89
2022/04/18 14:06:35;;;;;;;;;;;25.10;22.50;;;;;;5074305;28;19909;-89
2022/04/18 14:09:00;;;;;;;;;;;24.50;24.00;;;;;;5073947;28;19927;-89
2022/04/18 14:11:26;;;;;;;;;;;23.80;25.00;;;;;;5074164;28;19909;-90
2022/04/18 14:13:51;;;;;;;;;;;23.80;25.10;;;;;;5074037;28;19961;-90
2022/04/18 14:21:45;;;;;;;;;;;23.80;23.60;;;;;;5074293;28;20314;-89
2022/04/18 14:24:11;;;;;;;;;;;23.70;24.40;;;;;;5074197;28;19913;-90
2022/04/18 14:26:39;;;;;;;;;;;24.30;24.10;;;;;;5073963;28;20316;-89
2022/04/18 14:29:06;;;;;;;;;;;24.30;24.70;;;;;;5074068;28;19908;-89
2022/04/18 14:31:31;;;;;;;;;;;23.30;24.90;;;;;;5073704;28;19920;-89
2022/04/18 14:33:57;;;;;;;;;;;24.00;25.40;;;;;;5073806;28;19908;-89
2022/04/18 14:36:23;;;;;;;;;;;25.00;22.90;;;;;;5073743;28;19916;-90
2022/04/18 14:38:48;;;;;;;;;;;25.60;23.40;;;;;;5073663;28;19908;-90
2022/04/18 14:41:14;;;;;;;;;;;26.60;23.20;;;;;;5073613;28;20302;-90
2022/04/18 14:43:39;;;;;;;;;;;25.80;22.10;;;;;;5073604;28;19912;-89
2022/04/18 14:46:05;;;;;;;;;;;25.10;22.50;;;;;;5073537;28;19920;-90
2022/04/18 14:48:31;;;;;;;;;;;25.30;23.00;;;;;;5073495;28;19912;-90
2022/04/18 14:50:56;;;;;;;;;;;26.20;22.10;;;;;;5073420;28;19913;-90
2022/04/18 14:53:22;;;;;;;;;;;26.20;22.50;;;;;;5073694;28;20351;-89